Berriatua, Spain
Current Conditions -  °F | °C
As of 10:30 AM on Saturday 20 Dec 2014 (Local Time) from LEBB Reporting Station
Broken Clouds Broken Clouds  
Wind Chill: 54°   Ceiling: 1000
Heat Index: 54°   Visibility: 5mi
Dew Point: 50°   Wind: 0mph
Humidity: 88%   Direction: NA
Pressure: 30.56"   Gusts: NA
Location:  43.32°N, 2.47°W
Report Text: LEBB 200930Z 00000KT 8000 SCT003 BKN010 BKN016 12/10 Q1035 NOSIG
Loading
Personal Weather Stations






























Interactive Weather Map New forecast layout! Learn more

10-Day Weather Forecast

Advertisements
Track Severe Weather on mobile